createdAt,value
2018-09-05T00:01:18.365Z,70.10
2018-09-05T00:03:46.764Z,70.40
2018-09-05T00:06:15.142Z,70.50
2018-09-05T00:08:43.544Z,70.70
2018-09-05T00:11:11.905Z,70.80
2018-09-05T00:13:40.280Z,70.90
2018-09-05T00:16:08.620Z,70.70
2018-09-05T00:18:36.987Z,70.90
2018-09-05T00:21:05.636Z,71.10
2018-09-05T00:23:34.031Z,71.20
2018-09-05T00:26:02.414Z,71.10
2018-09-05T00:28:30.819Z,71.10
2018-09-05T00:30:59.165Z,71.40
2018-09-05T00:33:27.525Z,71.40
2018-09-05T00:35:55.899Z,71.40
2018-09-05T00:38:24.303Z,71.60
2018-09-05T00:40:52.656Z,71.70
2018-09-05T00:43:21.079Z,71.70
2018-09-05T00:45:49.455Z,71.90
2018-09-05T00:48:17.832Z,72.00
2018-09-05T00:50:46.224Z,72.20
2018-09-05T00:53:14.576Z,72.40
2018-09-05T00:55:42.963Z,72.40
2018-09-05T00:58:11.326Z,72.40
2018-09-05T01:00:39.728Z,72.60
2018-09-05T01:03:08.085Z,72.70
2018-09-05T01:05:36.474Z,72.70
2018-09-05T01:08:04.843Z,72.60
2018-09-05T01:10:33.217Z,72.80
2018-09-05T01:13:01.579Z,72.90
2018-09-05T01:15:29.963Z,72.90
2018-09-05T01:17:58.301Z,73.70
2018-09-05T01:20:26.689Z,73.00
2018-09-05T01:22:55.096Z,73.00
2018-09-05T01:25:23.484Z,73.00
2018-09-05T01:27:52.104Z,73.10
2018-09-05T01:30:20.765Z,73.10
2018-09-05T01:32:49.120Z,73.40
2018-09-05T01:35:17.495Z,73.40
2018-09-05T01:37:45.932Z,73.50
2018-09-05T01:40:14.311Z,73.60
2018-09-05T01:42:42.680Z,73.60
2018-09-05T01:45:11.077Z,74.60
2018-09-05T01:47:39.436Z,73.80
2018-09-05T01:50:07.860Z,73.70
2018-09-05T01:52:36.204Z,73.50
2018-09-05T01:55:04.588Z,73.60
2018-09-05T01:57:32.965Z,73.80
2018-09-05T02:00:01.308Z,73.60
2018-09-05T02:02:29.639Z,73.70
2018-09-05T02:04:58.006Z,73.80
2018-09-05T02:07:26.336Z,73.90
2018-09-05T02:09:54.681Z,74.20
2018-09-05T02:12:23.035Z,74.30
2018-09-05T02:14:51.393Z,74.30
2018-09-05T02:17:19.732Z,74.40
2018-09-05T02:19:48.103Z,74.40
2018-09-05T02:22:16.461Z,74.60
2018-09-05T02:24:45.035Z,74.50
2018-09-05T02:27:13.425Z,74.70
2018-09-05T02:29:41.785Z,74.80
2018-09-05T02:32:10.128Z,74.80
2018-09-05T02:34:38.494Z,74.80
2018-09-05T02:37:06.848Z,75.00
2018-09-05T02:39:35.237Z,75.10
2018-09-05T02:42:03.612Z,75.10
2018-09-05T02:44:31.972Z,75.10
2018-09-05T02:47:00.338Z,75.20
2018-09-05T02:49:28.677Z,75.40
2018-09-05T02:51:57.049Z,75.50
2018-09-05T02:54:25.383Z,75.60
2018-09-05T02:56:53.776Z,75.20
2018-09-05T02:59:22.152Z,75.90
2018-09-05T03:01:50.579Z,76.10
2018-09-05T03:04:18.931Z,76.00
2018-09-05T03:06:47.304Z,76.30
2018-09-05T03:09:15.713Z,76.40
2018-09-05T03:11:44.036Z,76.50
2018-09-05T03:14:12.387Z,76.60
2018-09-05T03:16:40.771Z,76.90
2018-09-05T03:19:09.116Z,77.00
2018-09-05T03:21:37.480Z,77.20
2018-09-05T03:24:05.813Z,77.30
2018-09-05T03:26:34.159Z,77.50
2018-09-05T03:29:02.526Z,77.70
2018-09-05T03:31:30.858Z,77.70
2018-09-05T03:33:59.180Z,77.90
2018-09-05T03:36:27.539Z,78.00
2018-09-05T03:38:55.891Z,78.10
2018-09-05T03:41:24.237Z,78.20
2018-09-05T03:43:52.565Z,77.70
2018-09-05T03:46:20.928Z,78.20
2018-09-05T03:48:49.256Z,78.40
2018-09-05T03:51:17.616Z,78.40
2018-09-05T03:53:45.961Z,78.40
2018-09-05T03:56:14.316Z,78.60
2018-09-05T03:58:42.629Z,78.80
2018-09-05T04:01:10.995Z,79.10
2018-09-05T04:03:39.308Z,79.00
2018-09-05T04:06:07.828Z,79.10
2018-09-05T04:08:36.153Z,79.20
2018-09-05T04:11:04.556Z,79.40
2018-09-05T04:13:32.907Z,79.40
2018-09-05T04:16:01.261Z,79.60
2018-09-05T04:18:29.600Z,79.90
2018-09-05T04:20:57.952Z,80.10
2018-09-05T04:23:29.258Z,79.70
2018-09-05T04:25:57.616Z,79.80
2018-09-05T04:28:26.128Z,80.40
2018-09-05T04:30:54.467Z,80.10
2018-09-05T04:33:22.790Z,80.00
2018-09-05T04:35:51.148Z,80.00
2018-09-05T04:38:19.535Z,79.70
2018-09-05T04:40:47.867Z,79.80
2018-09-05T04:43:16.219Z,80.40
2018-09-05T04:45:44.541Z,81.30
2018-09-05T04:48:12.916Z,80.50
2018-09-05T04:50:41.261Z,80.60
2018-09-05T04:53:09.654Z,80.60
2018-09-05T04:55:37.994Z,80.90
2018-09-05T04:58:06.406Z,81.00
2018-09-05T05:00:34.744Z,81.10
2018-09-05T05:03:04.607Z,81.20
2018-09-05T05:05:33.042Z,81.30
2018-09-05T05:08:01.379Z,81.40
2018-09-05T05:10:29.714Z,81.50
2018-09-05T05:12:58.084Z,81.60
2018-09-05T05:15:26.408Z,81.90
2018-09-05T05:17:54.764Z,81.60
2018-09-05T05:20:23.144Z,81.70
2018-09-05T05:22:51.500Z,81.80
2018-09-05T05:25:19.826Z,81.90
2018-09-05T05:27:48.215Z,81.90
2018-09-05T05:30:16.704Z,81.80
2018-09-05T05:32:45.103Z,81.50
2018-09-05T05:35:13.502Z,81.40
2018-09-05T05:37:41.863Z,81.70
2018-09-05T05:40:10.246Z,81.60
2018-09-05T05:42:38.627Z,81.60
2018-09-05T05:45:06.996Z,81.30
2018-09-05T05:47:35.644Z,81.40
2018-09-05T05:50:04.396Z,81.40
2018-09-05T05:52:33.454Z,81.40
2018-09-05T05:55:02.418Z,81.30
2018-09-05T05:57:30.747Z,81.40
2018-09-05T05:59:59.098Z,81.20
2018-09-05T06:02:27.469Z,81.10
2018-09-05T06:04:55.807Z,81.00
2018-09-05T06:07:24.160Z,81.10
2018-09-05T06:09:52.515Z,81.00
2018-09-05T06:12:20.867Z,81.10
2018-09-05T06:14:49.243Z,81.30
2018-09-05T06:17:17.615Z,81.20
2018-09-05T06:19:45.959Z,81.00
2018-09-05T06:22:14.345Z,81.10
2018-09-05T06:24:42.691Z,80.90
2018-09-05T06:27:11.083Z,80.80
2018-09-05T06:29:39.415Z,80.60
2018-09-05T06:32:07.749Z,80.70
2018-09-05T06:34:36.119Z,80.50
2018-09-05T06:37:04.481Z,80.30
2018-09-05T06:39:32.856Z,80.20
2018-09-05T06:42:01.189Z,80.20
2018-09-05T06:44:29.555Z,80.10
2018-09-05T06:46:57.935Z,79.90
2018-09-05T06:49:26.350Z,79.80
2018-09-05T06:51:54.694Z,79.70
2018-09-05T06:54:23.152Z,79.40
2018-09-05T06:56:51.484Z,79.30
2018-09-05T06:59:19.858Z,79.00
2018-09-05T07:01:48.189Z,78.90
2018-09-05T07:04:16.541Z,79.10
2018-09-05T07:06:45.138Z,78.50
2018-09-05T07:09:13.855Z,78.60
2018-09-05T07:11:42.329Z,78.40
2018-09-05T07:14:10.764Z,78.30
2018-09-05T07:16:39.084Z,78.10
2018-09-05T07:19:08.921Z,78.10
2018-09-05T07:21:37.566Z,78.00
2018-09-05T07:24:06.343Z,77.70
2018-09-05T07:26:34.666Z,77.50
2018-09-05T07:29:03.053Z,77.40
2018-09-05T07:31:31.393Z,77.40
2018-09-05T07:33:59.751Z,76.90
2018-09-05T07:36:28.107Z,77.00
2018-09-05T07:38:56.479Z,76.80
2018-09-05T07:41:24.803Z,76.70
2018-09-05T07:43:53.244Z,76.30
2018-09-05T07:46:21.601Z,76.20
2018-09-05T07:48:50.094Z,76.10
2018-09-05T07:51:18.609Z,75.90
2018-09-05T07:53:47.052Z,75.90
2018-09-05T07:56:15.436Z,75.80
2018-09-05T07:58:43.837Z,75.50
2018-09-05T08:01:12.266Z,75.30
2018-09-05T08:03:40.684Z,75.00
2018-09-05T08:06:09.049Z,74.80
2018-09-05T08:08:37.426Z,74.50
2018-09-05T08:11:05.997Z,74.30
2018-09-05T08:13:34.485Z,74.30
2018-09-05T08:16:02.874Z,74.40
2018-09-05T08:18:31.398Z,74.10
2018-09-05T08:20:59.760Z,73.80
2018-09-05T08:23:28.119Z,73.50
2018-09-05T08:25:56.453Z,73.60
2018-09-05T08:28:24.849Z,73.10
2018-09-05T08:30:53.224Z,73.10
2018-09-05T08:33:21.777Z,72.70
2018-09-05T08:35:50.406Z,72.50
2018-09-05T08:38:18.526Z,72.20
2018-09-05T08:40:46.876Z,72.10
2018-09-05T08:43:15.218Z,71.60
2018-09-05T08:45:43.833Z,71.70
2018-09-05T08:48:12.100Z,71.20
2018-09-05T08:50:40.384Z,71.20
2018-09-05T08:53:08.707Z,71.00
2018-09-05T08:55:37.108Z,70.90
2018-09-05T08:58:05.476Z,70.50
2018-09-05T09:00:33.834Z,70.50
2018-09-05T09:03:02.235Z,70.20
2018-09-05T09:05:30.564Z,70.20
2018-09-05T09:07:58.917Z,69.80
2018-09-05T09:10:27.292Z,69.40
2018-09-05T09:12:55.673Z,69.40
2018-09-05T09:15:24.046Z,69.40
2018-09-05T09:17:52.423Z,69.10
2018-09-05T09:20:20.886Z,69.20
2018-09-05T09:22:49.249Z,68.80
2018-09-05T09:25:17.598Z,68.80
2018-09-05T09:27:46.001Z,68.60
2018-09-05T09:30:14.382Z,68.40
2018-09-05T09:32:42.757Z,68.10
2018-09-05T09:35:11.150Z,68.00
2018-09-05T09:37:39.517Z,67.90
2018-09-05T09:40:07.907Z,67.50
2018-09-05T09:42:36.259Z,67.50
2018-09-05T09:45:04.645Z,67.40
2018-09-05T09:47:33.005Z,67.30
2018-09-05T09:50:01.368Z,67.00
2018-09-05T09:52:29.710Z,66.30
2018-09-05T09:54:58.069Z,66.50
2018-09-05T09:57:26.429Z,66.40
2018-09-05T09:59:54.995Z,66.10
2018-09-05T10:03:32.406Z,66.20
2018-09-05T10:06:06.008Z,65.50
2018-09-05T10:08:40.373Z,65.30
2018-09-05T10:11:15.464Z,64.90
2018-09-05T10:13:49.260Z,64.80
2018-09-05T10:16:22.881Z,64.50
2018-09-05T10:18:52.554Z,63.70
2018-09-05T10:21:21.002Z,63.40
2018-09-05T10:23:49.345Z,63.00
2018-09-05T10:26:17.705Z,62.40
2018-09-05T10:28:46.060Z,62.00
2018-09-05T10:31:14.432Z,61.90
2018-09-05T10:33:42.770Z,61.20
2018-09-05T10:36:11.120Z,60.90
2018-09-05T10:38:40.050Z,60.90
2018-09-05T10:41:08.652Z,60.90
2018-09-05T10:43:37.014Z,60.20
2018-09-05T10:46:05.415Z,60.30
2018-09-05T10:48:34.625Z,60.00
2018-09-05T10:51:03.021Z,59.90
2018-09-05T10:53:31.370Z,59.50
2018-09-05T10:55:59.774Z,59.10
2018-09-05T10:58:28.152Z,59.00
2018-09-05T11:00:56.566Z,58.80
2018-09-05T11:03:25.623Z,58.30
2018-09-05T11:05:54.033Z,58.00
2018-09-05T11:08:22.476Z,58.40
2018-09-05T11:10:51.091Z,57.20
2018-09-05T11:13:19.452Z,56.90
2018-09-05T11:15:47.889Z,56.80
2018-09-05T11:18:16.244Z,56.50
2018-09-05T11:20:44.727Z,56.10
2018-09-05T11:23:13.122Z,55.80
2018-09-05T11:25:41.516Z,55.50
2018-09-05T11:28:09.952Z,55.00
2018-09-05T11:30:38.318Z,55.30
2018-09-05T11:33:06.764Z,54.10
2018-09-05T11:35:35.138Z,53.40
2018-09-05T11:38:03.524Z,53.20
2018-09-05T11:40:31.931Z,52.80
2018-09-05T11:43:00.320Z,52.30
2018-09-05T11:45:28.672Z,51.80
2018-09-05T11:47:57.080Z,51.50
2018-09-05T11:50:25.479Z,51.20
2018-09-05T11:52:53.880Z,50.90
2018-09-05T11:55:22.261Z,50.30
2018-09-05T11:57:50.668Z,50.00
2018-09-05T12:00:19.081Z,49.90
2018-09-05T12:02:47.475Z,49.60
2018-09-05T12:05:15.845Z,49.30
2018-09-05T12:07:44.534Z,48.90
2018-09-05T12:10:12.917Z,48.70
2018-09-05T12:12:41.489Z,48.40
2018-09-05T12:15:09.854Z,48.30
2018-09-05T12:17:38.303Z,47.70
2018-09-05T12:20:06.753Z,47.10
2018-09-05T12:22:35.154Z,47.10
2018-09-05T12:25:03.538Z,46.70
2018-09-05T12:27:31.994Z,46.60
2018-09-05T12:30:00.477Z,46.60
2018-09-05T12:32:28.933Z,46.10
2018-09-05T12:34:57.384Z,45.80
2018-09-05T12:37:25.773Z,45.60
2018-09-05T12:39:54.146Z,45.10
2018-09-05T12:42:22.557Z,44.70
2018-09-05T12:44:50.976Z,43.90
2018-09-05T12:47:19.327Z,43.60
2018-09-05T12:49:47.713Z,43.50
2018-09-05T12:52:16.189Z,43.40
2018-09-05T12:54:44.585Z,42.70
2018-09-05T12:57:13.000Z,42.20
2018-09-05T12:59:41.358Z,42.10
2018-09-05T13:02:09.773Z,41.40
2018-09-05T13:04:38.109Z,41.60
2018-09-05T13:07:06.531Z,41.20
2018-09-05T13:09:34.885Z,41.10
2018-09-05T13:12:03.277Z,40.50
2018-09-05T13:14:31.832Z,40.40
2018-09-05T13:17:00.188Z,40.50
2018-09-05T13:19:28.567Z,40.00
2018-09-05T13:21:56.919Z,39.60
2018-09-05T13:24:25.292Z,39.50
2018-09-05T13:26:53.669Z,39.20
2018-09-05T13:29:22.076Z,39.20
2018-09-05T13:31:50.435Z,39.10
2018-09-05T13:34:18.822Z,38.70
2018-09-05T13:36:47.177Z,38.60
2018-09-05T13:39:15.553Z,38.20
2018-09-05T13:41:43.913Z,37.90
2018-09-05T13:44:12.289Z,37.70
2018-09-05T13:46:40.643Z,37.70
2018-09-05T13:49:09.020Z,37.40
2018-09-05T13:51:37.524Z,37.10
2018-09-05T13:54:05.950Z,37.00
2018-09-05T13:56:34.302Z,36.70
2018-09-05T13:59:02.674Z,36.70
2018-09-05T14:01:31.014Z,36.60
2018-09-05T14:03:59.388Z,36.10
2018-09-05T14:06:27.737Z,36.20
2018-09-05T14:08:56.109Z,35.90
2018-09-05T14:11:24.446Z,35.50
2018-09-05T14:13:52.838Z,35.10
2018-09-05T14:16:21.410Z,34.90
2018-09-05T14:18:50.064Z,34.70
2018-09-05T14:21:18.408Z,34.30
2018-09-05T14:23:46.815Z,34.20
2018-09-05T14:26:15.181Z,34.20
2018-09-05T14:28:43.576Z,33.70
2018-09-05T14:31:11.944Z,33.60
2018-09-05T14:33:40.340Z,33.20
2018-09-05T14:36:08.696Z,32.90
2018-09-05T14:38:37.075Z,32.60
2018-09-05T14:41:05.432Z,32.40
2018-09-05T14:43:33.805Z,32.00
2018-09-05T14:46:02.202Z,31.70
2018-09-05T14:48:30.622Z,31.50
2018-09-05T14:50:58.976Z,31.00
2018-09-05T14:53:27.373Z,30.70
2018-09-05T14:55:55.887Z,30.50
2018-09-05T14:58:24.244Z,30.20
2018-09-05T15:00:52.583Z,30.10
2018-09-05T15:03:20.957Z,30.10
2018-09-05T15:05:49.315Z,30.00
2018-09-05T15:08:17.701Z,30.00
2018-09-05T15:10:46.063Z,30.00
2018-09-05T15:13:14.401Z,29.90
2018-09-05T15:15:42.783Z,29.80
2018-09-05T15:18:11.332Z,29.70
2018-09-05T15:20:39.704Z,29.50
2018-09-05T15:23:08.119Z,29.20
2018-09-05T15:25:36.520Z,29.10
2018-09-05T15:28:04.899Z,29.00
2018-09-05T15:30:33.259Z,28.70
2018-09-05T15:33:01.585Z,28.20
2018-09-05T15:35:29.945Z,27.90
2018-09-05T15:37:58.280Z,27.70
2018-09-05T15:40:26.645Z,27.30
2018-09-05T15:42:54.988Z,27.00
2018-09-05T15:45:23.352Z,26.60
2018-09-05T15:47:51.697Z,26.40
2018-09-05T15:50:20.076Z,26.40
2018-09-05T15:52:48.430Z,26.40
2018-09-05T15:55:16.789Z,26.10
2018-09-05T15:57:45.808Z,26.00
2018-09-05T16:00:14.276Z,26.00
2018-09-05T16:02:42.603Z,26.00
2018-09-05T16:05:10.987Z,26.10
2018-09-05T16:07:39.340Z,26.10
2018-09-05T16:10:07.728Z,26.00
2018-09-05T16:12:36.062Z,26.00
2018-09-05T16:15:04.810Z,26.00
2018-09-05T16:17:33.119Z,26.10
2018-09-05T16:20:01.946Z,26.10
2018-09-05T16:22:30.355Z,26.60
2018-09-05T16:24:58.720Z,27.10
2018-09-05T16:27:27.119Z,27.60
2018-09-05T16:29:55.569Z,28.20
2018-09-05T16:32:24.122Z,28.70
2018-09-05T16:34:52.496Z,29.00
2018-09-05T16:37:20.840Z,29.60
2018-09-05T16:39:49.220Z,30.00
2018-09-05T16:42:17.610Z,30.20
2018-09-05T16:44:46.876Z,30.80
2018-09-05T16:47:15.231Z,31.10
2018-09-05T16:49:43.625Z,31.30
2018-09-05T16:52:12.048Z,31.50
2018-09-05T16:54:40.517Z,31.80
2018-09-05T16:57:08.855Z,32.00
2018-09-05T16:59:37.245Z,32.10
2018-09-05T17:02:05.638Z,32.30
2018-09-05T17:04:34.005Z,32.50
2018-09-05T17:07:02.385Z,32.50
2018-09-05T17:09:30.757Z,32.90
2018-09-05T17:11:59.201Z,33.20
2018-09-05T17:14:27.568Z,33.30
2018-09-05T17:16:55.963Z,33.40
2018-09-05T17:19:24.304Z,33.60
2018-09-05T17:21:52.883Z,33.80
2018-09-05T17:24:21.234Z,33.90
2018-09-05T17:26:49.789Z,34.30
2018-09-05T17:29:18.332Z,34.50
2018-09-05T17:31:46.736Z,34.90
2018-09-05T17:34:15.125Z,35.20
2018-09-05T17:36:43.535Z,35.60
2018-09-05T17:39:14.892Z,35.90
2018-09-05T17:41:43.321Z,36.20
2018-09-05T17:44:11.957Z,36.60
2018-09-05T17:46:40.353Z,36.70
2018-09-05T17:49:09.173Z,37.10
2018-09-05T17:51:37.565Z,37.30
2018-09-05T17:54:06.040Z,37.60
2018-09-05T17:56:34.468Z,38.10
2018-09-05T17:59:02.885Z,38.30
2018-09-05T18:01:31.332Z,38.60
2018-09-05T18:03:59.685Z,38.90
2018-09-05T18:06:28.346Z,39.10
2018-09-05T18:08:56.743Z,39.30
2018-09-05T18:11:25.133Z,39.60
2018-09-05T18:13:53.530Z,39.90
2018-09-05T18:16:21.932Z,40.20
2018-09-05T18:18:50.297Z,40.50
2018-09-05T18:21:18.707Z,40.80
2018-09-05T18:23:47.066Z,40.90
2018-09-05T18:26:16.385Z,41.20
2018-09-05T18:28:45.853Z,41.40
2018-09-05T18:31:14.225Z,41.60
2018-09-05T18:33:42.608Z,41.60
2018-09-05T18:36:11.010Z,41.80
2018-09-05T18:38:39.377Z,42.10
2018-09-05T18:41:07.791Z,42.40
2018-09-05T18:43:36.152Z,42.60
2018-09-05T18:46:04.558Z,42.90
2018-09-05T18:48:32.942Z,43.20
2018-09-05T18:51:01.343Z,43.20
2018-09-05T18:53:29.685Z,43.40
2018-09-05T18:55:58.051Z,43.80
2018-09-05T18:58:26.500Z,43.90
2018-09-05T19:00:54.845Z,44.20
2018-09-05T19:03:23.196Z,44.20
2018-09-05T19:05:51.640Z,44.30
2018-09-05T19:08:20.025Z,44.60
2018-09-05T19:10:48.373Z,44.80
2018-09-05T19:13:16.732Z,44.90
2018-09-05T19:15:45.060Z,45.10
2018-09-05T19:18:13.405Z,45.40
2018-09-05T19:20:41.749Z,45.50
2018-09-05T19:23:10.094Z,45.50
2018-09-05T19:25:38.414Z,45.60
2018-09-05T19:28:06.814Z,45.70
2018-09-05T19:30:35.225Z,46.10
2018-09-05T19:33:03.591Z,46.30
2018-09-05T19:35:32.012Z,46.50
2018-09-05T19:38:00.308Z,46.60
2018-09-05T19:40:28.642Z,46.80
2018-09-05T19:42:56.998Z,47.00
2018-09-05T19:45:25.316Z,47.30
2018-09-05T19:47:53.685Z,47.50
2018-09-05T19:50:22.086Z,47.70
2018-09-05T19:52:50.429Z,47.90
2018-09-05T19:55:18.766Z,48.00
2018-09-05T19:57:47.137Z,48.40
2018-09-05T20:00:16.523Z,48.50
2018-09-05T20:02:44.895Z,48.80
2018-09-05T20:05:13.507Z,49.00
2018-09-05T20:07:41.900Z,49.30
2018-09-05T20:10:10.240Z,49.60
2018-09-05T20:12:38.626Z,49.70
2018-09-05T20:15:06.989Z,50.10
2018-09-05T20:17:35.343Z,50.20
2018-09-05T20:20:03.844Z,50.40
2018-09-05T20:22:32.183Z,50.50
2018-09-05T20:25:00.565Z,50.60
2018-09-05T20:27:28.937Z,50.80
2018-09-05T20:29:57.335Z,50.80
2018-09-05T20:32:25.924Z,51.00
2018-09-05T20:34:54.290Z,51.20
2018-09-05T20:37:22.648Z,51.20
2018-09-05T20:39:51.020Z,51.20
2018-09-05T20:42:19.385Z,51.20
2018-09-05T20:44:47.757Z,51.30
2018-09-05T20:47:16.118Z,51.40
2018-09-05T20:49:44.489Z,51.60
2018-09-05T20:52:12.921Z,51.80
2018-09-05T20:54:41.334Z,51.80
2018-09-05T20:57:09.700Z,51.90
2018-09-05T20:59:38.060Z,51.90
2018-09-05T21:02:06.440Z,52.00
2018-09-05T21:04:34.804Z,52.00
2018-09-05T21:07:03.175Z,52.20
2018-09-05T21:09:31.560Z,52.20
2018-09-05T21:11:59.926Z,52.30
2018-09-05T21:14:28.286Z,52.50
2018-09-05T21:16:56.721Z,52.50
2018-09-05T21:19:25.082Z,52.60
2018-09-05T21:21:53.451Z,52.70
2018-09-05T21:24:21.824Z,53.40
2018-09-05T21:26:50.198Z,52.40
2018-09-05T21:29:18.572Z,52.90
2018-09-05T21:31:46.943Z,53.10
2018-09-05T21:34:15.479Z,53.20
2018-09-05T21:36:43.857Z,53.30
2018-09-05T21:39:12.244Z,54.00
2018-09-05T21:41:40.608Z,53.60
2018-09-05T21:44:09.083Z,53.70
2018-09-05T21:46:37.548Z,53.90
2018-09-05T21:49:06.253Z,54.20
2018-09-05T21:51:34.676Z,54.50
2018-09-05T21:54:03.040Z,54.60
2018-09-05T21:56:31.405Z,54.50
2018-09-05T21:58:59.777Z,54.60
2018-09-05T22:01:28.168Z,55.00
2018-09-05T22:03:56.515Z,55.10
2018-09-05T22:06:24.868Z,55.20
2018-09-05T22:08:53.231Z,55.40
2018-09-05T22:11:26.804Z,55.50
2018-09-05T22:13:55.885Z,55.90
2018-09-05T22:16:24.296Z,56.20
2018-09-05T22:18:53.149Z,56.30
2018-09-05T22:21:21.520Z,56.40
2018-09-05T22:23:49.900Z,56.10
2018-09-05T22:26:18.276Z,56.60
2018-09-05T22:28:46.637Z,56.60
2018-09-05T22:31:15.007Z,56.60
2018-09-05T22:33:43.349Z,56.90
2018-09-05T22:36:11.779Z,56.90
2018-09-05T22:38:40.132Z,57.00
2018-09-05T22:41:08.672Z,57.20
2018-09-05T22:43:48.350Z,57.30
2018-09-05T22:46:28.196Z,57.50
2018-09-05T22:51:15.369Z,57.70
2018-09-05T22:54:32.015Z,57.80
2018-09-05T22:59:22.158Z,58.10
2018-09-05T23:02:05.424Z,58.30
2018-09-05T23:06:52.556Z,58.70
2018-09-05T23:09:32.452Z,58.70
2018-09-05T23:12:23.901Z,59.00
2018-09-05T23:15:04.215Z,59.20
2018-09-05T23:18:46.511Z,59.40
2018-09-05T23:21:20.394Z,59.50
2018-09-05T23:23:56.752Z,59.70
2018-09-05T23:26:25.276Z,59.90
2018-09-05T23:28:53.696Z,59.80
2018-09-05T23:31:22.451Z,60.10
2018-09-05T23:33:50.862Z,60.30
2018-09-05T23:36:19.644Z,60.50
2018-09-05T23:38:48.033Z,60.50
2018-09-05T23:41:16.470Z,60.70
2018-09-05T23:43:44.933Z,60.80
2018-09-05T23:46:13.440Z,61.00
2018-09-05T23:48:41.852Z,61.20
2018-09-05T23:51:10.237Z,61.50
2018-09-05T23:53:38.629Z,61.50
2018-09-05T23:56:06.997Z,61.70
2018-09-05T23:58:35.373Z,61.90
